Time;durP1;ratioP1;P1;durP2;ratioP2;P2;SDS_P1;SDS_P2;PMS_P1;PMS_P2;Temp;Humidity;BMP_temperature;BMP_pressure;BME280_temperature;BME280_humidity;BME280_pressure;Samples;Min_cycle;Max_cycle;Signal;HPM_P1;HPM_P2
2021/12/23 00:00:48;;;;;;;19.67;8.73;;;-5.90;99.90;;;;;;4140944;28;20100;-58
2021/12/23 00:02:49;;;;;;;18.40;8.55;;;-5.80;99.90;;;;;;4139867;28;20083;-59
2021/12/23 00:04:50;;;;;;;21.85;8.70;;;-5.90;99.90;;;;;;4140909;28;20030;-57
2021/12/23 00:06:51;;;;;;;20.23;9.20;;;-5.80;99.90;;;;;;4139939;28;20038;-58
2021/12/23 00:08:53;;;;;;;17.98;8.70;;;-5.80;99.90;;;;;;4141714;28;20042;-58
2021/12/23 00:10:54;;;;;;;21.02;9.20;;;-5.80;99.90;;;;;;4139536;28;20577;-52
2021/12/23 00:12:55;;;;;;;21.05;9.10;;;-5.70;99.90;;;;;;4140981;28;20550;-58
2021/12/23 00:14:56;;;;;;;19.52;9.05;;;-5.80;99.90;;;;;;4143037;28;20030;-58
2021/12/23 00:17:18;;;;;;;16.45;7.03;;;-5.70;99.90;;;;;;4144436;28;20477;-56
2021/12/23 00:23:43;;;;;;;15.18;7.70;;;-5.60;99.90;;;;;;4142802;28;20103;-56
2021/12/23 00:25:45;;;;;;;14.80;7.18;;;-5.60;99.90;;;;;;4144177;28;20092;-58
2021/12/23 00:27:46;;;;;;;19.58;8.63;;;-5.60;99.90;;;;;;4142615;28;20044;-58
2021/12/23 00:29:47;;;;;;;22.83;9.80;;;-5.60;99.90;;;;;;4142846;28;20092;-54
2021/12/23 00:31:48;;;;;;;18.77;9.68;;;-5.60;99.90;;;;;;4141660;28;20038;-55
2021/12/23 00:33:49;;;;;;;16.65;8.95;;;-5.50;99.90;;;;;;4143565;28;20053;-58
2021/12/23 00:35:53;;;;;;;24.33;11.70;;;-5.50;99.90;;;;;;4142754;28;20825;-57
2021/12/23 00:38:05;;;;;;;26.70;13.55;;;-5.60;99.90;;;;;;4143557;28;20451;-57
2021/12/23 00:40:10;;;;;;;23.70;11.65;;;-5.60;99.90;;;;;;4141783;28;20153;-55
2021/12/23 00:42:11;;;;;;;21.90;9.73;;;-5.60;99.90;;;;;;4143235;28;20021;-57
2021/12/23 00:44:13;;;;;;;17.77;8.68;;;-5.60;99.90;;;;;;4143118;28;20189;-56
2021/12/23 00:46:14;;;;;;;18.63;9.23;;;-5.70;99.90;;;;;;4142716;28;20026;-59
2021/12/23 00:48:17;;;;;;;22.83;8.52;;;-5.70;99.90;;;;;;4143366;28;20041;-58
2021/12/23 00:50:19;;;;;;;14.52;7.78;;;-5.70;99.90;;;;;;4142284;28;20046;-57
2021/12/23 00:52:27;;;;;;;18.50;9.13;;;-5.70;99.90;;;;;;4143642;28;20077;-55
2021/12/23 00:54:29;;;;;;;18.00;9.23;;;-5.70;99.90;;;;;;4142196;28;20088;-56
2021/12/23 00:56:35;;;;;;;17.05;8.13;;;-5.70;99.90;;;;;;4143361;28;20104;-52
2021/12/23 00:58:36;;;;;;;17.67;8.32;;;-5.70;99.90;;;;;;4141882;28;20875;-57
2021/12/23 01:00:38;;;;;;;14.88;8.50;;;-5.70;99.90;;;;;;4143365;28;20485;-57
2021/12/23 01:02:43;;;;;;;13.95;8.35;;;-5.70;99.90;;;;;;4141826;28;20100;-53
2021/12/23 01:04:44;;;;;;;15.35;7.50;;;-5.70;99.90;;;;;;4143272;28;20057;-59
2021/12/23 01:06:46;;;;;;;19.98;8.70;;;-5.70;99.90;;;;;;4141796;28;20465;-58
2021/12/23 01:08:47;;;;;;;22.23;10.45;;;-5.70;99.90;;;;;;4143731;28;20030;-59
2021/12/23 01:10:54;;;;;;;36.95;16.20;;;-5.70;99.90;;;;;;4141879;28;20033;-60
2021/12/23 01:13:00;;;;;;;23.67;11.55;;;-5.60;99.90;;;;;;4143420;28;20042;-58
2021/12/23 01:15:17;;;;;;;20.77;8.52;;;-5.70;99.90;;;;;;4141699;28;20096;-55
2021/12/23 01:19:19;;;;;;;17.33;7.72;;;-5.80;99.90;;;;;;4141960;28;20037;-59
2021/12/23 01:21:21;;;;;;;21.35;8.95;;;-5.80;99.90;;;;;;4142720;28;20410;-59
2021/12/23 01:23:24;;;;;;;26.35;10.65;;;-5.80;99.90;;;;;;4142052;28;20083;-65
2021/12/23 01:25:25;;;;;;;23.17;10.65;;;-5.80;99.90;;;;;;4141113;28;20876;-57
2021/12/23 01:27:27;;;;;;;22.13;9.70;;;-5.80;99.90;;;;;;4142681;28;20034;-57
2021/12/23 01:29:28;;;;;;;22.45;8.65;;;-5.70;99.90;;;;;;4141968;28;20417;-58
2021/12/23 01:31:31;;;;;;;19.55;8.43;;;-5.70;99.90;;;;;;4142738;28;20479;-58
2021/12/23 01:33:32;;;;;;;17.90;8.02;;;-5.70;99.90;;;;;;4141755;28;20026;-61
2021/12/23 01:35:34;;;;;;;16.60;6.85;;;-5.70;99.90;;;;;;4143015;28;20487;-54
2021/12/23 01:37:35;;;;;;;13.98;6.00;;;-5.70;99.90;;;;;;4141807;28;20026;-56
2021/12/23 01:39:36;;;;;;;19.73;7.40;;;-5.60;99.90;;;;;;4143197;28;20029;-58
2021/12/23 01:41:38;;;;;;;13.60;5.75;;;-5.60;99.90;;;;;;4141030;28;20092;-59
2021/12/23 01:43:39;;;;;;;16.05;6.68;;;-5.60;99.90;;;;;;4142826;28;20073;-59
2021/12/23 01:45:45;;;;;;;15.35;7.03;;;-5.70;99.90;;;;;;4141507;28;20025;-55
2021/12/23 01:47:47;;;;;;;12.40;6.18;;;-5.60;99.90;;;;;;4142866;28;20433;-56
2021/12/23 01:49:49;;;;;;;12.38;6.20;;;-5.60;99.90;;;;;;4141459;28;20069;-60
2021/12/23 01:51:50;;;;;;;19.92;7.70;;;-5.60;99.90;;;;;;4142540;28;20030;-53
2021/12/23 01:53:51;;;;;;;19.65;7.88;;;-5.60;99.90;;;;;;4141734;28;20466;-59
2021/12/23 01:55:53;;;;;;;17.00;7.70;;;-5.70;99.90;;;;;;4141844;28;20030;-57
2021/12/23 01:57:55;;;;;;;17.88;7.38;;;-5.70;99.90;;;;;;4142353;28;20116;-55
2021/12/23 01:59:58;;;;;;;18.15;8.43;;;-5.70;99.90;;;;;;4140377;28;20050;-59
2021/12/23 02:02:00;;;;;;;18.77;8.07;;;-5.70;99.90;;;;;;4142077;28;20042;-54
2021/12/23 02:04:01;;;;;;;17.95;7.78;;;-5.70;99.90;;;;;;4141428;28;20103;-58
2021/12/23 02:06:02;;;;;;;14.32;7.85;;;-5.70;99.90;;;;;;4142851;28;20092;-64
2021/12/23 02:08:03;;;;;;;17.00;8.25;;;-5.70;99.90;;;;;;4141471;28;20037;-60
2021/12/23 02:10:07;;;;;;;14.38;7.40;;;-5.70;99.90;;;;;;4142225;28;20425;-56
2021/12/23 02:12:10;;;;;;;19.08;7.90;;;-5.70;99.90;;;;;;4141122;28;20103;-56
2021/12/23 02:14:12;;;;;;;19.10;8.02;;;-5.70;99.90;;;;;;4142355;28;20822;-57
2021/12/23 02:16:13;;;;;;;14.02;6.28;;;-5.70;99.90;;;;;;4141396;28;20038;-56
2021/12/23 02:18:14;;;;;;;19.33;8.43;;;-5.70;99.90;;;;;;4142528;28;20030;-58
2021/12/23 02:20:19;;;;;;;20.40;7.43;;;-5.60;99.90;;;;;;4140937;28;20734;-53
2021/12/23 02:22:21;;;;;;;16.67;7.10;;;-5.70;99.90;;;;;;4142431;28;20065;-56
2021/12/23 02:24:22;;;;;;;13.05;6.20;;;-5.70;99.90;;;;;;4140958;28;20088;-57
2021/12/23 02:26:23;;;;;;;18.00;6.95;;;-5.70;99.90;;;;;;4141633;28;20045;-62
2021/12/23 02:28:26;;;;;;;13.25;6.03;;;-5.70;99.90;;;;;;4141190;28;20076;-56
2021/12/23 02:30:28;;;;;;;14.07;6.22;;;-5.80;99.90;;;;;;4141346;28;20100;-59
2021/12/23 02:32:29;;;;;;;13.13;5.65;;;-5.80;99.90;;;;;;4141298;28;20053;-56
2021/12/23 02:34:31;;;;;;;13.85;5.82;;;-5.80;99.90;;;;;;4141327;28;20888;-59
2021/12/23 02:36:32;;;;;;;17.33;6.53;;;-5.80;99.90;;;;;;4141226;28;20454;-56
2021/12/23 02:38:33;;;;;;;13.30;5.88;;;-5.90;99.90;;;;;;4141328;28;20871;-55
2021/12/23 02:40:41;;;;;;;12.38;5.43;;;-5.90;99.90;;;;;;4141746;28;20042;-63
2021/12/23 02:42:42;;;;;;;12.13;5.53;;;-5.90;99.90;;;;;;4140743;28;20076;-57
2021/12/23 02:44:43;;;;;;;15.48;5.72;;;-5.90;99.90;;;;;;4142231;28;20077;-54
2021/12/23 02:46:45;;;;;;;14.27;5.63;;;-5.90;99.90;;;;;;4140357;28;20034;-55
2021/12/23 02:48:47;;;;;;;18.70;5.32;;;-5.90;99.90;;;;;;4142149;28;20026;-56
2021/12/23 02:50:52;;;;;;;16.15;5.35;;;-5.90;99.90;;;;;;4140717;28;20124;-55
2021/12/23 02:52:53;;;;;;;10.30;4.82;;;-5.90;99.90;;;;;;4141596;28;20368;-58
2021/12/23 02:54:56;;;;;;;11.38;5.45;;;-5.90;99.90;;;;;;4140771;28;20449;-58
2021/12/23 02:56:58;;;;;;;13.73;5.25;;;-6.00;99.90;;;;;;4142052;28;20029;-56
2021/12/23 02:59:00;;;;;;;15.63;4.90;;;-6.00;99.90;;;;;;4140357;28;20421;-56
2021/12/23 03:01:04;;;;;;;13.27;5.75;;;-6.00;99.90;;;;;;4141698;28;20104;-58
2021/12/23 03:03:05;;;;;;;11.82;5.38;;;-6.00;99.90;;;;;;4141034;28;20037;-59
2021/12/23 03:05:07;;;;;;;21.30;6.65;;;-6.00;99.90;;;;;;4141082;28;20737;-59
2021/12/23 03:07:09;;;;;;;16.45;6.65;;;-6.00;99.90;;;;;;4140771;28;20033;-58
2021/12/23 03:09:10;;;;;;;15.43;6.72;;;-6.00;99.90;;;;;;4141439;28;20091;-57
2021/12/23 03:11:15;;;;;;;17.48;6.47;;;-6.00;99.90;;;;;;4141205;28;20037;-59
2021/12/23 03:13:17;;;;;;;14.52;7.00;;;-6.10;99.90;;;;;;4140388;28;20026;-59
2021/12/23 03:15:18;;;;;;;15.80;6.35;;;-6.10;99.90;;;;;;4140961;28;20042;-58
2021/12/23 03:17:20;;;;;;;15.63;6.05;;;-6.20;99.90;;;;;;4140116;28;20030;-56
2021/12/23 03:19:21;;;;;;;13.43;5.35;;;-6.20;99.90;;;;;;4141496;28;20080;-59
2021/12/23 03:21:22;;;;;;;12.48;5.45;;;-6.20;99.90;;;;;;4139824;28;20030;-57
2021/12/23 03:23:24;;;;;;;20.73;5.55;;;-6.20;99.90;;;;;;4141733;28;20096;-58
2021/12/23 03:25:25;;;;;;;12.85;5.40;;;-6.20;99.90;;;;;;4140202;28;20826;-57
2021/12/23 03:27:27;;;;;;;12.35;5.85;;;-6.30;99.90;;;;;;4141409;28;21080;-58
2021/12/23 03:29:28;;;;;;;11.55;5.45;;;-6.30;99.90;;;;;;4140115;28;20088;-53
2021/12/23 03:31:30;;;;;;;14.10;5.75;;;-6.30;99.90;;;;;;4141544;28;20110;-59
2021/12/23 03:33:32;;;;;;;16.98;7.10;;;-6.30;99.90;;;;;;4139875;28;20092;-58
2021/12/23 03:35:34;;;;;;;14.88;6.97;;;-6.50;99.90;;;;;;4141282;28;20766;-58
2021/12/23 03:37:35;;;;;;;18.70;6.78;;;-6.60;99.90;;;;;;4140311;28;20092;-57
2021/12/23 03:39:37;;;;;;;16.73;7.88;;;-6.60;99.90;;;;;;4141598;28;20045;-57
2021/12/23 03:41:38;;;;;;;18.83;8.73;;;-6.80;99.90;;;;;;4140810;28;20115;-58
2021/12/23 03:43:39;;;;;;;18.85;7.82;;;-6.80;99.90;;;;;;4139881;28;20100;-57
2021/12/23 03:45:44;;;;;;;18.25;8.10;;;-6.90;99.90;;;;;;4140799;28;20157;-56
2021/12/23 03:47:48;;;;;;;19.05;8.23;;;-7.00;99.90;;;;;;4139469;28;20096;-57
2021/12/23 03:49:49;;;;;;;20.58;8.75;;;-7.10;99.90;;;;;;4142944;28;20030;-57
2021/12/23 03:51:51;;;;;;;22.75;9.85;;;-7.10;99.90;;;;;;4143000;28;20490;-53
2021/12/23 03:53:52;;;;;;;17.90;9.23;;;-7.10;99.90;;;;;;4143681;28;20026;-57
2021/12/23 03:55:53;;;;;;;17.45;8.05;;;-7.20;99.90;;;;;;4143374;28;20041;-55
2021/12/23 03:57:54;;;;;;;19.42;7.63;;;-7.20;99.90;;;;;;4144709;28;20076;-56
2021/12/23 03:59:55;;;;;;;22.95;9.07;;;-7.20;99.90;;;;;;4143254;28;20030;-54
2021/12/23 04:01:56;;;;;;;22.88;10.15;;;-7.20;99.90;;;;;;4144342;28;20100;-55
2021/12/23 04:03:57;;;;;;;38.42;11.98;;;-7.20;99.90;;;;;;4143405;28;20076;-62
2021/12/23 04:05:59;;;;;;;30.33;14.73;;;-7.20;99.90;;;;;;4144635;28;20100;-54
2021/12/23 04:08:00;;;;;;;38.38;15.13;;;-7.20;99.90;;;;;;4143775;28;20076;-58
2021/12/23 04:10:03;;;;;;;37.50;15.40;;;-7.20;99.90;;;;;;4144373;28;20433;-54
2021/12/23 04:12:05;;;;;;;39.00;16.63;;;-7.20;99.90;;;;;;4143035;28;20038;-56
2021/12/23 04:14:06;;;;;;;36.55;14.73;;;-7.20;99.90;;;;;;4143085;28;20538;-58
2021/12/23 04:16:07;;;;;;;43.50;17.05;;;-7.30;99.90;;;;;;4143491;28;20445;-58
2021/12/23 04:18:09;;;;;;;44.05;17.20;;;-7.40;99.90;;;;;;4143278;28;20046;-55
2021/12/23 04:20:19;;;;;;;39.70;17.42;;;-7.40;99.90;;;;;;4144027;28;20033;-54
2021/12/23 04:22:20;;;;;;;45.70;19.27;;;-7.40;99.90;;;;;;4143076;28;20034;-59
2021/12/23 04:24:21;;;;;;;43.17;19.33;;;-7.50;99.90;;;;;;4143613;28;20042;-58
2021/12/23 04:26:22;;;;;;;44.50;18.70;;;-7.70;99.90;;;;;;4143033;28;20105;-58
2021/12/23 04:28:24;;;;;;;47.53;18.58;;;-7.70;99.90;;;;;;4144098;28;20480;-57
2021/12/23 04:30:26;;;;;;;48.80;19.70;;;-7.70;99.90;;;;;;4142749;28;20030;-59
2021/12/23 04:32:27;;;;;;;48.40;20.50;;;-7.70;99.90;;;;;;4143693;28;20061;-62
2021/12/23 04:34:28;;;;;;;45.90;18.80;;;-7.70;99.90;;;;;;4142782;28;20042;-58
2021/12/23 04:36:29;;;;;;;41.17;17.88;;;-7.80;99.90;;;;;;4143949;28;20691;-56
2021/12/23 04:38:30;;;;;;;44.65;18.63;;;-7.70;99.90;;;;;;4142362;28;20030;-59
2021/12/23 04:40:34;;;;;;;40.25;16.75;;;-7.80;99.90;;;;;;4142480;28;20073;-59
2021/12/23 04:42:36;;;;;;;40.83;17.08;;;-7.80;99.90;;;;;;4142453;28;20068;-53
2021/12/23 04:44:37;;;;;;;40.13;15.65;;;-7.90;99.90;;;;;;4142985;28;20037;-58
2021/12/23 04:46:38;;;;;;;36.15;15.98;;;-7.90;99.90;;;;;;4142869;28;20462;-58
2021/12/23 04:48:40;;;;;;;36.88;15.60;;;-7.90;99.90;;;;;;4142737;28;20026;-58
2021/12/23 04:50:41;;;;;;;32.58;14.68;;;-7.90;99.90;;;;;;4142615;28;20034;-58
2021/12/23 04:52:43;;;;;;;31.85;13.85;;;-7.90;99.90;;;;;;4142473;28;20051;-59
2021/12/23 04:54:44;;;;;;;33.05;13.38;;;-8.00;99.90;;;;;;4143676;28;20091;-53
2021/12/23 04:56:46;;;;;;;32.38;13.48;;;-8.00;99.90;;;;;;4141915;28;20438;-58
2021/12/23 04:58:47;;;;;;;36.53;14.63;;;-8.10;99.90;;;;;;4142890;28;20041;-58
2021/12/23 05:00:50;;;;;;;25.65;13.68;;;-8.10;99.90;;;;;;4141964;28;20042;-54
2021/12/23 05:02:51;;;;;;;34.38;14.35;;;-8.10;99.90;;;;;;4142784;28;20030;-59
2021/12/23 05:04:53;;;;;;;34.22;13.38;;;-8.10;99.90;;;;;;4142325;28;20084;-57
2021/12/23 05:06:54;;;;;;;35.10;13.05;;;-8.10;99.90;;;;;;4143032;28;20088;-59
2021/12/23 05:08:55;;;;;;;40.97;14.57;;;-8.10;99.90;;;;;;4140731;28;20112;-58
2021/12/23 05:10:56;;;;;;;39.53;14.80;;;-8.10;99.90;;;;;;4142696;28;20030;-58
2021/12/23 05:12:57;;;;;;;38.53;14.80;;;-8.10;99.90;;;;;;4141331;28;20104;-59
2021/12/23 05:14:58;;;;;;;36.47;15.43;;;-8.10;99.90;;;;;;4142179;28;20061;-61
2021/12/23 05:16:59;;;;;;;36.10;14.50;;;-8.20;99.90;;;;;;4141674;28;20088;-57
2021/12/23 05:19:01;;;;;;;36.58;14.80;;;-8.20;99.90;;;;;;4142148;28;20092;-56
2021/12/23 05:21:05;;;;;;;38.33;14.98;;;-8.20;99.90;;;;;;4142112;28;20037;-54
2021/12/23 05:23:08;;;;;;;39.97;14.52;;;-8.30;99.90;;;;;;4141308;28;20042;-54
2021/12/23 05:25:10;;;;;;;41.25;14.85;;;-8.30;99.90;;;;;;4142798;28;20092;-56
2021/12/23 05:27:11;;;;;;;40.42;15.30;;;-8.40;99.90;;;;;;4141256;28;20080;-56
2021/12/23 05:29:14;;;;;;;36.35;16.27;;;-8.40;99.90;;;;;;4142779;28;20034;-58
2021/12/23 05:31:15;;;;;;;33.88;14.52;;;-8.40;99.90;;;;;;4141552;28;20430;-58
2021/12/23 05:33:17;;;;;;;39.05;14.57;;;-8.40;99.90;;;;;;4142925;28;20489;-55
2021/12/23 05:35:20;;;;;;;30.50;14.07;;;-8.30;99.90;;;;;;4141328;28;20404;-56
2021/12/23 05:37:21;;;;;;;40.65;14.68;;;-8.40;99.90;;;;;;4142278;28;20544;-59
2021/12/23 05:39:22;;;;;;;42.22;14.65;;;-8.30;99.90;;;;;;4141690;28;20184;-53
2021/12/23 05:41:26;;;;;;;33.75;15.55;;;-8.40;99.90;;;;;;4143016;28;20190;-58
2021/12/23 05:43:28;;;;;;;42.47;15.98;;;-8.40;99.90;;;;;;4141216;28;20018;-56
2021/12/23 05:45:29;;;;;;;53.88;17.67;;;-8.40;99.90;;;;;;4141898;28;20069;-58
2021/12/23 05:47:30;;;;;;;50.58;19.00;;;-8.50;99.90;;;;;;4141475;28;20095;-59
2021/12/23 05:49:31;;;;;;;42.58;18.42;;;-8.60;99.90;;;;;;4142007;28;20097;-58
2021/12/23 05:51:33;;;;;;;51.13;16.85;;;-8.70;99.90;;;;;;4141759;28;20046;-55
2021/12/23 05:53:34;;;;;;;43.35;17.50;;;-8.70;99.90;;;;;;4141926;28;20103;-57
2021/12/23 05:55:35;;;;;;;48.30;18.92;;;-8.70;99.90;;;;;;4136330;28;20092;-56
2021/12/23 05:57:37;;;;;;;47.65;15.98;;;-8.70;99.90;;;;;;4133896;28;20482;-59
2021/12/23 05:59:38;;;;;;;44.80;15.40;;;-8.70;99.90;;;;;;4140929;28;20046;-59
2021/12/23 06:01:39;;;;;;;43.28;15.93;;;-8.80;99.90;;;;;;4140776;28;20029;-57
2021/12/23 06:03:41;;;;;;;38.50;17.17;;;-8.80;99.90;;;;;;4142038;28;20096;-58
2021/12/23 06:05:42;;;;;;;41.88;15.20;;;-8.80;99.90;;;;;;4140675;28;20049;-56
2021/12/23 06:07:44;;;;;;;44.10;15.43;;;-8.80;99.90;;;;;;4141965;28;20041;-61
2021/12/23 06:09:45;;;;;;;36.75;16.05;;;-8.80;99.90;;;;;;4141322;28;20049;-57
2021/12/23 06:11:46;;;;;;;46.17;16.60;;;-8.90;99.90;;;;;;4141083;28;20065;-54
2021/12/23 06:13:47;;;;;;;53.80;17.88;;;-8.90;99.90;;;;;;4140780;28;20092;-57
2021/12/23 06:15:48;;;;;;;45.17;16.85;;;-8.90;99.90;;;;;;4141462;28;20477;-55
2021/12/23 06:17:49;;;;;;;37.10;16.05;;;-8.90;99.90;;;;;;4140577;28;20034;-61
2021/12/23 06:19:51;;;;;;;46.55;16.58;;;-8.90;99.90;;;;;;4141496;28;20115;-67
2021/12/23 06:21:52;;;;;;;43.38;16.60;;;-8.80;99.90;;;;;;4141654;28;20096;-58
2021/12/23 06:23:53;;;;;;;49.97;20.75;;;-8.80;99.90;;;;;;4141389;28;20041;-55
2021/12/23 06:25:54;;;;;;;46.90;19.13;;;-8.70;99.90;;;;;;4155605;28;20033;-54
2021/12/23 06:27:56;;;;;;;53.45;19.65;;;-8.60;99.90;;;;;;4156230;28;20100;-64
2021/12/23 06:29:57;;;;;;;50.88;20.15;;;-8.30;99.90;;;;;;4157161;28;20026;-58
2021/12/23 06:31:58;;;;;;;42.38;18.05;;;-8.10;99.90;;;;;;4156618;28;20976;-60
2021/12/23 06:33:59;;;;;;;47.22;19.92;;;-7.90;99.90;;;;;;4157705;28;20099;-60
2021/12/23 06:36:00;;;;;;;46.20;18.85;;;-7.70;99.90;;;;;;4156417;28;20092;-58
2021/12/23 06:38:05;;;;;;;49.63;19.35;;;-7.50;99.90;;;;;;4157404;28;20029;-59
2021/12/23 06:40:07;;;;;;;43.65;19.27;;;-7.20;99.90;;;;;;4156744;28;20029;-59
2021/12/23 06:42:08;;;;;;;47.65;19.45;;;-6.90;99.90;;;;;;4157276;28;20160;-59
2021/12/23 06:44:09;;;;;;;43.92;19.02;;;-6.70;99.90;;;;;;4156306;28;20533;-58
2021/12/23 06:46:10;;;;;;;48.47;18.77;;;-6.60;99.90;;;;;;4157670;28;20029;-55
2021/12/23 06:48:12;;;;;;;50.88;20.42;;;-6.50;99.90;;;;;;4156201;28;20045;-58
2021/12/23 06:50:15;;;;;;;46.45;18.73;;;-6.20;99.90;;;;;;4157107;28;20037;-58
2021/12/23 06:52:17;;;;;;;36.28;17.90;;;-6.00;99.90;;;;;;4156381;28;20041;-58
2021/12/23 06:54:18;;;;;;;41.40;18.45;;;-5.70;99.90;;;;;;4157376;28;20083;-61
2021/12/23 06:56:19;;;;;;;34.83;16.70;;;-5.40;99.90;;;;;;4156713;28;20095;-60
2021/12/23 06:58:22;;;;;;;34.65;16.58;;;-5.30;99.90;;;;;;4156555;28;20104;-58
2021/12/23 07:00:27;;;;;;;37.53;15.88;;;-5.20;99.90;;;;;;4156814;28;20098;-58
2021/12/23 07:02:28;;;;;;;36.67;17.27;;;-5.00;99.90;;;;;;4156169;28;20053;-58
2021/12/23 07:04:32;;;;;;;43.93;20.77;;;-4.90;99.90;;;;;;4157471;28;20271;-56
2021/12/23 07:06:35;;;;;;;42.60;20.40;;;-4.80;99.90;;;;;;4156104;28;20337;-62
2021/12/23 07:08:37;;;;;;;40.80;19.00;;;-4.90;99.90;;;;;;4157322;28;20290;-62
2021/12/23 07:10:39;;;;;;;47.73;19.53;;;-4.70;99.90;;;;;;4156425;28;20325;-60
2021/12/23 07:12:40;;;;;;;49.80;20.17;;;-4.40;99.90;;;;;;4157272;28;20290;-59
2021/12/23 07:14:41;;;;;;;48.60;21.83;;;-4.20;99.90;;;;;;4156503;28;20977;-59
2021/12/23 07:16:43;;;;;;;52.17;22.70;;;-4.20;99.90;;;;;;4149805;28;20342;-61
2021/12/23 07:18:44;;;;;;;58.67;24.37;;;-4.10;99.90;;;;;;4140221;28;20317;-58
2021/12/23 07:20:45;;;;;;;52.33;22.53;;;-4.20;99.90;;;;;;4141437;28;20349;-63
2021/12/23 07:22:46;;;;;;;48.77;20.33;;;-4.40;99.90;;;;;;4138901;28;20326;-63
2021/12/23 07:24:47;;;;;;;36.50;17.80;;;-4.50;99.90;;;;;;4140539;28;20314;-60
2021/12/23 07:26:49;;;;;;;40.63;17.50;;;-4.60;99.90;;;;;;4140106;28;20774;-59
2021/12/23 07:28:50;;;;;;;39.10;18.00;;;-4.50;99.90;;;;;;4140242;28;20671;-65
2021/12/23 07:30:51;;;;;;;46.43;19.73;;;-4.30;99.90;;;;;;4140329;28;20345;-63
2021/12/23 07:32:54;;;;;;;41.53;19.67;;;-4.10;99.90;;;;;;4139858;28;20905;-65
2021/12/23 07:34:55;;;;;;;50.30;21.03;;;-3.90;99.90;;;;;;4140657;28;20615;-55
2021/12/23 07:36:56;;;;;;;44.40;21.67;;;-4.20;99.90;;;;;;4139631;28;20267;-59
2021/12/23 07:38:58;;;;;;;52.37;22.80;;;-4.10;99.90;;;;;;4140834;28;20268;-59
2021/12/23 07:40:59;;;;;;;54.93;22.97;;;-4.10;99.90;;;;;;4139463;28;20271;-61
2021/12/23 07:43:20;;;;;;;57.67;23.70;;;-4.00;99.90;;;;;;4141388;28;20267;-60
2021/12/23 07:45:26;;;;;;;50.50;21.10;;;-3.90;99.90;;;;;;4139602;28;20337;-58
2021/12/23 07:47:28;;;;;;;54.00;22.27;;;-3.80;99.90;;;;;;4140714;28;20353;-59
2021/12/23 07:49:30;;;;;;;41.57;20.73;;;-3.80;99.90;;;;;;4139713;28;20271;-64
2021/12/23 07:51:31;;;;;;;51.73;22.20;;;-3.70;99.90;;;;;;4138971;28;21171;-60
2021/12/23 07:53:32;;;;;;;51.93;22.57;;;-3.70;99.90;;;;;;4139633;28;20298;-61
2021/12/23 07:55:33;;;;;;;49.30;21.77;;;-3.70;99.90;;;;;;4140843;28;20313;-60
2021/12/23 07:57:35;;;;;;;51.50;23.17;;;-3.70;99.90;;;;;;4139917;28;20822;-60
2021/12/23 07:59:36;;;;;;;50.83;21.37;;;-3.80;99.90;;;;;;4140678;28;20329;-63
2021/12/23 08:01:37;;;;;;;50.53;22.47;;;-3.80;99.90;;;;;;4139670;28;20751;-61
2021/12/23 08:03:38;;;;;;;47.53;20.50;;;-4.00;99.90;;;;;;4140324;28;20263;-64
2021/12/23 08:05:41;;;;;;;45.10;19.37;;;-4.00;99.90;;;;;;4140007;28;20255;-61
2021/12/23 08:07:42;;;;;;;47.80;21.47;;;-3.90;99.90;;;;;;4138876;28;20342;-65
2021/12/23 08:09:43;;;;;;;48.33;20.37;;;-3.90;99.90;;;;;;4140073;28;20268;-61
2021/12/23 08:11:44;;;;;;;49.43;21.77;;;-3.80;99.90;;;;;;4139473;28;21237;-61
2021/12/23 08:13:45;;;;;;;49.20;21.53;;;-3.70;99.90;;;;;;4140184;28;20322;-59
2021/12/23 08:15:47;;;;;;;52.93;21.10;;;-3.80;99.90;;;;;;4139484;28;20735;-50
2021/12/23 08:17:48;;;;;;;48.13;22.30;;;-4.00;99.90;;;;;;4140571;28;20291;-59
2021/12/23 08:19:49;;;;;;;55.87;22.87;;;-4.20;99.90;;;;;;4139458;28;20305;-63
2021/12/23 08:21:50;;;;;;;50.50;22.73;;;-4.30;99.90;;;;;;4140679;28;20786;-57
2021/12/23 08:23:52;;;;;;;57.57;25.90;;;-4.20;99.90;;;;;;4137113;28;20267;-58
2021/12/23 08:25:54;;;;;;;57.80;24.23;;;-4.00;99.90;;;;;;4140009;28;20267;-61
2021/12/23 08:27:56;;;;;;;60.20;24.97;;;-4.10;99.90;;;;;;4138518;28;20294;-59
2021/12/23 08:29:57;;;;;;;65.50;26.73;;;-4.20;99.90;;;;;;4138451;28;20707;-58
2021/12/23 08:31:58;;;;;;;60.43;25.33;;;-4.40;99.90;;;;;;4139031;28;20341;-58
2021/12/23 08:33:59;;;;;;;67.00;24.73;;;-4.20;99.90;;;;;;4140231;28;20317;-58
2021/12/23 08:36:01;;;;;;;53.97;21.60;;;-4.30;99.90;;;;;;4142217;28;20321;-57
2021/12/23 08:38:04;;;;;;;45.90;20.33;;;-4.60;99.90;;;;;;4142590;28;20084;-58
2021/12/23 08:40:08;;;;;;;45.97;20.65;;;-4.60;99.90;;;;;;4142806;28;20330;-59
2021/12/23 08:42:10;;;;;;;50.50;20.23;;;-4.60;99.90;;;;;;4142525;28;20038;-59
2021/12/23 08:44:11;;;;;;;50.85;21.17;;;-4.70;99.90;;;;;;4143001;28;20038;-59
2021/12/23 08:46:12;;;;;;;48.63;20.02;;;-4.80;99.90;;;;;;4142449;28;20046;-57
2021/12/23 08:48:14;;;;;;;49.47;21.98;;;-4.60;99.90;;;;;;4143020;28;20034;-60
2021/12/23 08:50:16;;;;;;;47.63;20.75;;;-4.60;99.90;;;;;;4142196;28;20038;-58
2021/12/23 08:52:18;;;;;;;56.88;21.75;;;-4.70;99.90;;;;;;4142994;28;20053;-59
2021/12/23 08:54:19;;;;;;;41.67;20.40;;;-4.60;99.90;;;;;;4141625;28;20139;-60
2021/12/23 08:56:20;;;;;;;44.42;19.67;;;-4.70;99.90;;;;;;4143142;28;20072;-60
2021/12/23 08:58:21;;;;;;;38.65;18.95;;;-4.90;99.90;;;;;;4141677;28;20103;-61
2021/12/23 09:00:23;;;;;;;41.75;17.48;;;-5.00;99.90;;;;;;4143262;28;20095;-60
2021/12/23 09:02:25;;;;;;;41.95;19.80;;;-4.80;99.90;;;;;;4141857;28;20018;-59
2021/12/23 09:04:26;;;;;;;37.30;17.25;;;-4.90;99.90;;;;;;4143423;28;20029;-60
2021/12/23 09:06:27;;;;;;;40.97;16.88;;;-4.90;99.90;;;;;;4141704;28;20021;-59
2021/12/23 09:08:28;;;;;;;34.22;15.07;;;-4.90;99.90;;;;;;4142078;28;20034;-60
2021/12/23 09:10:30;;;;;;;32.70;12.98;;;-4.90;99.90;;;;;;4142180;28;20030;-61
2021/12/23 09:12:32;;;;;;;39.15;14.93;;;-4.90;99.90;;;;;;4141733;28;20065;-61
2021/12/23 09:14:34;;;;;;;29.98;12.48;;;-4.70;99.90;;;;;;4141600;28;20826;-62
2021/12/23 09:16:35;;;;;;;30.55;12.90;;;-4.80;99.90;;;;;;4141147;28;20467;-61
2021/12/23 09:18:37;;;;;;;30.77;11.52;;;-4.80;99.90;;;;;;4143037;28;20042;-61
2021/12/23 09:20:38;;;;;;;35.60;12.93;;;-5.00;99.90;;;;;;4141000;28;20096;-61
2021/12/23 09:22:39;;;;;;;26.85;11.95;;;-5.20;99.90;;;;;;4142159;28;20029;-62
2021/12/23 09:24:45;;;;;;;27.38;12.27;;;-5.20;99.90;;;;;;4141372;28;20030;-61
2021/12/23 09:26:53;;;;;;;28.58;11.70;;;-5.10;99.90;;;;;;4142145;28;20580;-61
2021/12/23 09:29:11;;;;;;;33.20;12.43;;;-5.00;99.90;;;;;;4141041;28;20477;-61
2021/12/23 09:33:32;;;;;;;26.67;11.75;;;-5.00;99.90;;;;;;4140715;28;20095;-57
2021/12/23 09:35:33;;;;;;;33.08;12.18;;;-5.10;99.90;;;;;;4142369;28;20175;-60
2021/12/23 09:37:34;;;;;;;27.95;12.00;;;-5.20;99.90;;;;;;4140277;28;20065;-59
2021/12/23 09:39:36;;;;;;;28.67;11.48;;;-5.30;99.90;;;;;;4141808;28;20038;-60
2021/12/23 09:41:39;;;;;;;27.27;12.32;;;-5.40;99.90;;;;;;4140906;28;20026;-58
2021/12/23 09:43:41;;;;;;;34.03;13.05;;;-5.40;99.90;;;;;;4139786;28;20046;-61
2021/12/23 09:45:46;;;;;;;38.28;13.95;;;-5.40;99.90;;;;;;4139715;28;20461;-61
2021/12/23 09:47:49;;;;;;;37.35;13.70;;;-5.40;99.90;;;;;;4134469;28;20479;-59
2021/12/23 09:49:50;;;;;;;30.35;11.98;;;-5.40;99.90;;;;;;4125116;28;20034;-61
2021/12/23 09:51:52;;;;;;;32.03;13.65;;;-5.30;99.90;;;;;;4125624;28;20034;-61
2021/12/23 09:53:58;;;;;;;28.17;12.18;;;-5.30;99.90;;;;;;4125022;28;20034;-59
2021/12/23 09:56:00;;;;;;;31.38;13.00;;;-5.30;99.90;;;;;;4125388;28;20034;-58
2021/12/23 09:58:04;;;;;;;27.70;12.82;;;-5.30;99.90;;;;;;4125350;28;20054;-60
2021/12/23 10:00:11;;;;;;;31.38;13.30;;;-5.20;99.90;;;;;;4124946;28;20306;-57
2021/12/23 10:02:12;;;;;;;36.58;12.15;;;-5.10;99.90;;;;;;4125110;28;20100;-60
2021/12/23 10:04:13;;;;;;;24.83;12.70;;;-5.10;99.90;;;;;;4124673;28;20026;-59
2021/12/23 10:06:14;;;;;;;26.92;12.05;;;-5.00;99.90;;;;;;4125940;28;20365;-59
2021/12/23 10:08:16;;;;;;;26.95;10.60;;;-4.90;99.90;;;;;;4124664;28;20081;-60
2021/12/23 10:31:52;;;;;;;17.55;9.23;;;-4.90;99.90;;;;;;4125247;28;20429;-60
2021/12/23 10:38:53;;;;;;;28.08;10.80;;;-4.60;99.90;;;;;;4124271;28;20100;-61
2021/12/23 10:41:02;;;;;;;29.27;11.25;;;-4.60;99.90;;;;;;4125346;28;20031;-60
2021/12/23 10:43:04;;;;;;;30.98;9.63;;;-4.50;99.90;;;;;;4123424;28;20088;-59
2021/12/23 10:45:10;;;;;;;23.95;10.52;;;-4.40;99.90;;;;;;4124979;28;20099;-60
2021/12/23 10:47:29;;;;;;;23.77;10.23;;;-4.40;99.90;;;;;;4123458;28;20092;-60
2021/12/23 10:49:51;;;;;;;21.60;10.35;;;-4.30;99.90;;;;;;4124332;28;20085;-61
2021/12/23 10:52:11;;;;;;;25.58;10.75;;;-4.20;99.90;;;;;;4123692;28;20487;-58
2021/12/23 10:58:01;;;;;;;21.25;10.48;;;-4.10;99.90;;;;;;4123974;28;20092;-57
2021/12/23 10:59:26;;;;;;;21.83;9.73;;;-4.00;99.90;;;;;;4105269;28;20027;-59
2021/12/23 11:01:28;;;;;;;27.02;9.90;;;-3.90;99.90;;;;;;4115260;28;20054;-59